sensor_id;sensor_type;location;lat;lon;timestamp;P1;durP1;ratioP1;P2;durP2;ratioP2
74821;SDS011;63353;48.702;8.884;2023-08-07T00:01:55;5.83;;;5.40;;
74821;SDS011;63353;48.702;8.884;2023-08-07T00:04:26;5.80;;;5.37;;
74821;SDS011;63353;48.702;8.884;2023-08-07T00:06:53;6.03;;;5.57;;
74821;SDS011;63353;48.702;8.884;2023-08-07T00:09:24;5.73;;;5.33;;
74821;SDS011;63353;48.702;8.884;2023-08-07T00:11:50;6.93;;;6.30;;
74821;SDS011;63353;48.702;8.884;2023-08-07T00:14:18;6.60;;;6.20;;
74821;SDS011;63353;48.702;8.884;2023-08-07T00:16:44;7.30;;;6.70;;
74821;SDS011;63353;48.702;8.884;2023-08-07T00:19:13;7.00;;;6.40;;
74821;SDS011;63353;48.702;8.884;2023-08-07T00:21:41;7.30;;;6.80;;
74821;SDS011;63353;48.702;8.884;2023-08-07T00:24:07;7.40;;;6.80;;
74821;SDS011;63353;48.702;8.884;2023-08-07T00:26:38;7.37;;;6.67;;
74821;SDS011;63353;48.702;8.884;2023-08-07T00:29:13;8.03;;;7.53;;
74821;SDS011;63353;48.702;8.884;2023-08-07T00:31:38;8.37;;;7.87;;
74821;SDS011;63353;48.702;8.884;2023-08-07T00:34:07;7.77;;;7.37;;
74821;SDS011;63353;48.702;8.884;2023-08-07T00:36:34;7.47;;;7.03;;
74821;SDS011;63353;48.702;8.884;2023-08-07T00:39:00;6.67;;;6.17;;
74821;SDS011;63353;48.702;8.884;2023-08-07T00:41:28;7.07;;;6.50;;
74821;SDS011;63353;48.702;8.884;2023-08-07T00:43:54;5.70;;;5.23;;
74821;SDS011;63353;48.702;8.884;2023-08-07T00:46:29;7.43;;;6.93;;
74821;SDS011;63353;48.702;8.884;2023-08-07T00:49:01;5.83;;;5.53;;
74821;SDS011;63353;48.702;8.884;2023-08-07T00:51:31;7.67;;;7.27;;
74821;SDS011;63353;48.702;8.884;2023-08-07T00:53:57;8.00;;;7.57;;
74821;SDS011;63353;48.702;8.884;2023-08-07T00:56:28;7.27;;;6.77;;
74821;SDS011;63353;48.702;8.884;2023-08-07T00:58:58;8.77;;;8.37;;
74821;SDS011;63353;48.702;8.884;2023-08-07T01:01:24;7.83;;;7.43;;
74821;SDS011;63353;48.702;8.884;2023-08-07T01:04:03;10.00;;;9.40;;
74821;SDS011;63353;48.702;8.884;2023-08-07T01:06:29;11.07;;;10.47;;
74821;SDS011;63353;48.702;8.884;2023-08-07T01:08:54;12.23;;;11.73;;
74821;SDS011;63353;48.702;8.884;2023-08-07T01:14:23;11.10;;;10.50;;
74821;SDS011;63353;48.702;8.884;2023-08-07T01:17:15;8.70;;;8.30;;
74821;SDS011;63353;48.702;8.884;2023-08-07T01:19:45;11.40;;;10.80;;
74821;SDS011;63353;48.702;8.884;2023-08-07T01:22:13;11.30;;;10.70;;
74821;SDS011;63353;48.702;8.884;2023-08-07T01:24:49;14.33;;;13.67;;
74821;SDS011;63353;48.702;8.884;2023-08-07T01:29:48;14.83;;;13.93;;
74821;SDS011;63353;48.702;8.884;2023-08-07T01:32:32;16.60;;;15.90;;
74821;SDS011;63353;48.702;8.884;2023-08-07T01:35:22;16.93;;;16.13;;
74821;SDS011;63353;48.702;8.884;2023-08-07T01:37:52;8.30;;;7.80;;
74821;SDS011;63353;48.702;8.884;2023-08-07T01:40:23;7.33;;;6.93;;
74821;SDS011;63353;48.702;8.884;2023-08-07T01:42:49;8.80;;;8.23;;
74821;SDS011;63353;48.702;8.884;2023-08-07T01:45:24;4.93;;;4.50;;
74821;SDS011;63353;48.702;8.884;2023-08-07T01:47:52;4.97;;;4.67;;
74821;SDS011;63353;48.702;8.884;2023-08-07T01:50:19;5.13;;;4.73;;
74821;SDS011;63353;48.702;8.884;2023-08-07T01:52:48;5.80;;;5.30;;
74821;SDS011;63353;48.702;8.884;2023-08-07T01:55:16;7.07;;;4.83;;
74821;SDS011;63353;48.702;8.884;2023-08-07T01:57:43;5.37;;;4.87;;
74821;SDS011;63353;48.702;8.884;2023-08-07T02:00:15;5.47;;;5.17;;
74821;SDS011;63353;48.702;8.884;2023-08-07T02:02:47;5.37;;;4.97;;
74821;SDS011;63353;48.702;8.884;2023-08-07T02:05:16;5.10;;;4.70;;
74821;SDS011;63353;48.702;8.884;2023-08-07T02:07:42;5.23;;;4.83;;
74821;SDS011;63353;48.702;8.884;2023-08-07T02:10:08;5.70;;;5.20;;
74821;SDS011;63353;48.702;8.884;2023-08-07T02:12:40;6.13;;;5.53;;
74821;SDS011;63353;48.702;8.884;2023-08-07T02:15:05;6.67;;;6.07;;
74821;SDS011;63353;48.702;8.884;2023-08-07T02:17:31;6.10;;;5.70;;
74821;SDS011;63353;48.702;8.884;2023-08-07T02:20:02;5.53;;;5.10;;
74821;SDS011;63353;48.702;8.884;2023-08-07T02:22:31;6.30;;;6.00;;
74821;SDS011;63353;48.702;8.884;2023-08-07T02:25:00;5.53;;;5.23;;
74821;SDS011;63353;48.702;8.884;2023-08-07T02:27:31;5.33;;;4.93;;
74821;SDS011;63353;48.702;8.884;2023-08-07T02:29:57;5.27;;;4.87;;
74821;SDS011;63353;48.702;8.884;2023-08-07T02:32:23;5.57;;;5.17;;
74821;SDS011;63353;48.702;8.884;2023-08-07T02:34:52;5.73;;;5.10;;
74821;SDS011;63353;48.702;8.884;2023-08-07T02:37:17;6.17;;;5.67;;
74821;SDS011;63353;48.702;8.884;2023-08-07T02:39:43;6.13;;;5.60;;
74821;SDS011;63353;48.702;8.884;2023-08-07T02:42:12;6.10;;;5.70;;
74821;SDS011;63353;48.702;8.884;2023-08-07T02:44:38;6.17;;;5.77;;
74821;SDS011;63353;48.702;8.884;2023-08-07T02:47:04;6.97;;;6.47;;
74821;SDS011;63353;48.702;8.884;2023-08-07T02:49:32;6.90;;;6.27;;
74821;SDS011;63353;48.702;8.884;2023-08-07T02:51:58;6.97;;;6.23;;
74821;SDS011;63353;48.702;8.884;2023-08-07T02:54:24;7.07;;;6.57;;
74821;SDS011;63353;48.702;8.884;2023-08-07T02:56:52;6.30;;;5.80;;
74821;SDS011;63353;48.702;8.884;2023-08-07T02:59:21;7.73;;;6.97;;
74821;SDS011;63353;48.702;8.884;2023-08-07T03:01:47;6.90;;;6.40;;
74821;SDS011;63353;48.702;8.884;2023-08-07T03:04:12;6.70;;;6.20;;
74821;SDS011;63353;48.702;8.884;2023-08-07T03:06:38;6.00;;;5.50;;
74821;SDS011;63353;48.702;8.884;2023-08-07T03:09:03;6.50;;;5.80;;
74821;SDS011;63353;48.702;8.884;2023-08-07T03:11:32;5.57;;;5.17;;
74821;SDS011;63353;48.702;8.884;2023-08-07T03:14:07;5.87;;;5.57;;
74821;SDS011;63353;48.702;8.884;2023-08-07T03:16:45;7.00;;;6.57;;
74821;SDS011;63353;48.702;8.884;2023-08-07T03:19:11;6.70;;;6.20;;
74821;SDS011;63353;48.702;8.884;2023-08-07T03:21:45;6.47;;;5.97;;
74821;SDS011;63353;48.702;8.884;2023-08-07T03:24:14;6.60;;;6.10;;
74821;SDS011;63353;48.702;8.884;2023-08-07T03:26:46;6.83;;;6.27;;
74821;SDS011;63353;48.702;8.884;2023-08-07T03:29:12;6.43;;;5.83;;
74821;SDS011;63353;48.702;8.884;2023-08-07T03:31:41;5.13;;;4.87;;
74821;SDS011;63353;48.702;8.884;2023-08-07T03:34:10;5.13;;;4.87;;
74821;SDS011;63353;48.702;8.884;2023-08-07T03:36:38;5.07;;;4.57;;
74821;SDS011;63353;48.702;8.884;2023-08-07T03:39:10;8.33;;;5.00;;
74821;SDS011;63353;48.702;8.884;2023-08-07T03:41:40;5.37;;;4.83;;
74821;SDS011;63353;48.702;8.884;2023-08-07T03:44:08;6.10;;;5.60;;
74821;SDS011;63353;48.702;8.884;2023-08-07T03:46:37;5.10;;;4.80;;
74821;SDS011;63353;48.702;8.884;2023-08-07T03:49:03;5.20;;;4.60;;
74821;SDS011;63353;48.702;8.884;2023-08-07T03:51:28;5.40;;;4.90;;
74821;SDS011;63353;48.702;8.884;2023-08-07T03:53:55;6.03;;;5.43;;
74821;SDS011;63353;48.702;8.884;2023-08-07T03:56:21;5.20;;;4.80;;
74821;SDS011;63353;48.702;8.884;2023-08-07T03:58:46;6.40;;;5.80;;
74821;SDS011;63353;48.702;8.884;2023-08-07T04:01:14;5.77;;;5.10;;
74821;SDS011;63353;48.702;8.884;2023-08-07T04:03:43;6.63;;;6.13;;
74821;SDS011;63353;48.702;8.884;2023-08-07T04:06:08;6.30;;;5.80;;
74821;SDS011;63353;48.702;8.884;2023-08-07T04:08:40;6.10;;;5.70;;
74821;SDS011;63353;48.702;8.884;2023-08-07T04:11:10;5.60;;;5.30;;
74821;SDS011;63353;48.702;8.884;2023-08-07T04:13:42;6.33;;;5.17;;
74821;SDS011;63353;48.702;8.884;2023-08-07T04:16:19;5.60;;;5.07;;
74821;SDS011;63353;48.702;8.884;2023-08-07T04:18:57;5.60;;;5.13;;
74821;SDS011;63353;48.702;8.884;2023-08-07T04:21:38;5.37;;;4.97;;
74821;SDS011;63353;48.702;8.884;2023-08-07T04:24:03;5.80;;;5.30;;
74821;SDS011;63353;48.702;8.884;2023-08-07T04:26:35;5.70;;;5.40;;
74821;SDS011;63353;48.702;8.884;2023-08-07T04:29:02;6.73;;;5.37;;
74821;SDS011;63353;48.702;8.884;2023-08-07T04:31:27;6.40;;;5.80;;
74821;SDS011;63353;48.702;8.884;2023-08-07T04:33:58;6.20;;;5.80;;
74821;SDS011;63353;48.702;8.884;2023-08-07T04:36:27;5.80;;;5.40;;
74821;SDS011;63353;48.702;8.884;2023-08-07T04:38:58;5.97;;;5.57;;
74821;SDS011;63353;48.702;8.884;2023-08-07T04:41:27;5.87;;;5.37;;
74821;SDS011;63353;48.702;8.884;2023-08-07T04:43:55;5.40;;;4.97;;
74821;SDS011;63353;48.702;8.884;2023-08-07T04:46:21;5.60;;;5.20;;
74821;SDS011;63353;48.702;8.884;2023-08-07T04:48:53;6.73;;;6.23;;
74821;SDS011;63353;48.702;8.884;2023-08-07T04:51:21;6.20;;;5.63;;
74821;SDS011;63353;48.702;8.884;2023-08-07T04:53:47;6.00;;;5.70;;
74821;SDS011;63353;48.702;8.884;2023-08-07T04:56:16;5.87;;;5.37;;
74821;SDS011;63353;48.702;8.884;2023-08-07T04:58:42;5.03;;;4.77;;
74821;SDS011;63353;48.702;8.884;2023-08-07T05:01:20;5.40;;;4.97;;
74821;SDS011;63353;48.702;8.884;2023-08-07T05:03:46;5.40;;;5.00;;
74821;SDS011;63353;48.702;8.884;2023-08-07T05:06:17;6.10;;;5.70;;
74821;SDS011;63353;48.702;8.884;2023-08-07T05:08:52;6.07;;;5.57;;
74821;SDS011;63353;48.702;8.884;2023-08-07T05:11:17;5.53;;;5.10;;
74821;SDS011;63353;48.702;8.884;2023-08-07T05:13:45;6.33;;;5.90;;
74821;SDS011;63353;48.702;8.884;2023-08-07T05:16:14;6.67;;;5.87;;
74821;SDS011;63353;48.702;8.884;2023-08-07T05:18:39;6.37;;;5.93;;
74821;SDS011;63353;48.702;8.884;2023-08-07T05:21:14;6.20;;;5.73;;
74821;SDS011;63353;48.702;8.884;2023-08-07T05:23:40;6.70;;;6.20;;
74821;SDS011;63353;48.702;8.884;2023-08-07T05:26:16;6.37;;;5.80;;
74821;SDS011;63353;48.702;8.884;2023-08-07T05:28:44;7.80;;;7.40;;
74821;SDS011;63353;48.702;8.884;2023-08-07T05:31:10;8.43;;;8.03;;
74821;SDS011;63353;48.702;8.884;2023-08-07T05:33:39;8.60;;;8.00;;
74821;SDS011;63353;48.702;8.884;2023-08-07T05:36:07;8.50;;;7.97;;
74821;SDS011;63353;48.702;8.884;2023-08-07T05:38:36;7.40;;;6.63;;
74821;SDS011;63353;48.702;8.884;2023-08-07T05:41:01;8.33;;;7.63;;
74821;SDS011;63353;48.702;8.884;2023-08-07T05:43:27;8.43;;;7.93;;
74821;SDS011;63353;48.702;8.884;2023-08-07T05:46:01;8.33;;;7.83;;
74821;SDS011;63353;48.702;8.884;2023-08-07T05:48:42;11.17;;;10.50;;
74821;SDS011;63353;48.702;8.884;2023-08-07T05:51:08;10.40;;;9.70;;
74821;SDS011;63353;48.702;8.884;2023-08-07T05:53:34;11.30;;;10.67;;
74821;SDS011;63353;48.702;8.884;2023-08-07T05:56:09;12.07;;;11.30;;
74821;SDS011;63353;48.702;8.884;2023-08-07T05:58:34;11.47;;;10.90;;
74821;SDS011;63353;48.702;8.884;2023-08-07T06:01:00;13.80;;;13.03;;
74821;SDS011;63353;48.702;8.884;2023-08-07T06:03:26;13.90;;;13.10;;
74821;SDS011;63353;48.702;8.884;2023-08-07T06:05:54;14.03;;;13.23;;
74821;SDS011;63353;48.702;8.884;2023-08-07T06:08:23;13.93;;;13.10;;
74821;SDS011;63353;48.702;8.884;2023-08-07T06:10:48;13.13;;;12.43;;
74821;SDS011;63353;48.702;8.884;2023-08-07T06:13:20;15.17;;;14.37;;
74821;SDS011;63353;48.702;8.884;2023-08-07T06:15:51;11.03;;;10.30;;
74821;SDS011;63353;48.702;8.884;2023-08-07T06:18:17;11.83;;;11.13;;
74821;SDS011;63353;48.702;8.884;2023-08-07T06:20:48;11.20;;;10.53;;
74821;SDS011;63353;48.702;8.884;2023-08-07T06:23:14;15.70;;;14.90;;
74821;SDS011;63353;48.702;8.884;2023-08-07T06:25:42;12.10;;;11.40;;
74821;SDS011;63353;48.702;8.884;2023-08-07T06:28:11;10.30;;;9.77;;
74821;SDS011;63353;48.702;8.884;2023-08-07T06:30:37;14.23;;;13.47;;
74821;SDS011;63353;48.702;8.884;2023-08-07T06:33:03;13.77;;;12.97;;
74821;SDS011;63353;48.702;8.884;2023-08-07T06:35:29;14.60;;;13.90;;
74821;SDS011;63353;48.702;8.884;2023-08-07T06:37:54;12.70;;;12.10;;
74821;SDS011;63353;48.702;8.884;2023-08-07T06:40:25;12.53;;;11.93;;
74821;SDS011;63353;48.702;8.884;2023-08-07T06:42:54;10.37;;;9.73;;
74821;SDS011;63353;48.702;8.884;2023-08-07T06:45:23;8.93;;;8.43;;
74821;SDS011;63353;48.702;8.884;2023-08-07T06:47:48;9.03;;;8.43;;
74821;SDS011;63353;48.702;8.884;2023-08-07T06:50:21;7.30;;;6.80;;
74821;SDS011;63353;48.702;8.884;2023-08-07T06:52:46;6.93;;;6.53;;
74821;SDS011;63353;48.702;8.884;2023-08-07T06:55:12;8.23;;;7.63;;
74821;SDS011;63353;48.702;8.884;2023-08-07T06:57:44;7.20;;;6.80;;
74821;SDS011;63353;48.702;8.884;2023-08-07T07:00:10;6.70;;;6.30;;
74821;SDS011;63353;48.702;8.884;2023-08-07T07:02:42;6.10;;;5.60;;
74821;SDS011;63353;48.702;8.884;2023-08-07T07:05:14;6.23;;;5.73;;
74821;SDS011;63353;48.702;8.884;2023-08-07T07:07:46;5.37;;;4.97;;
74821;SDS011;63353;48.702;8.884;2023-08-07T07:10:12;4.70;;;4.50;;
74821;SDS011;63353;48.702;8.884;2023-08-07T07:12:41;5.73;;;5.27;;
74821;SDS011;63353;48.702;8.884;2023-08-07T07:15:09;7.17;;;6.77;;
74821;SDS011;63353;48.702;8.884;2023-08-07T07:17:35;5.23;;;4.77;;
74821;SDS011;63353;48.702;8.884;2023-08-07T07:20:04;8.33;;;7.83;;
74821;SDS011;63353;48.702;8.884;2023-08-07T07:22:30;9.17;;;8.67;;
74821;SDS011;63353;48.702;8.884;2023-08-07T07:24:56;8.03;;;7.63;;
74821;SDS011;63353;48.702;8.884;2023-08-07T07:27:21;9.37;;;8.87;;
74821;SDS011;63353;48.702;8.884;2023-08-07T07:29:53;9.57;;;9.07;;
74821;SDS011;63353;48.702;8.884;2023-08-07T07:32:20;10.10;;;9.53;;
74821;SDS011;63353;48.702;8.884;2023-08-07T07:34:55;8.83;;;8.43;;
74821;SDS011;63353;48.702;8.884;2023-08-07T07:37:21;10.43;;;9.83;;
74821;SDS011;63353;48.702;8.884;2023-08-07T07:39:47;7.33;;;6.93;;
74821;SDS011;63353;48.702;8.884;2023-08-07T07:42:12;8.03;;;7.57;;
74821;SDS011;63353;48.702;8.884;2023-08-07T07:44:38;7.70;;;7.27;;
74821;SDS011;63353;48.702;8.884;2023-08-07T07:47:04;7.33;;;6.90;;
74821;SDS011;63353;48.702;8.884;2023-08-07T07:49:32;6.77;;;6.37;;
74821;SDS011;63353;48.702;8.884;2023-08-07T07:52:04;6.93;;;6.73;;
74821;SDS011;63353;48.702;8.884;2023-08-07T07:54:31;8.30;;;7.77;;
74821;SDS011;63353;48.702;8.884;2023-08-07T07:57:03;6.00;;;5.70;;
74821;SDS011;63353;48.702;8.884;2023-08-07T07:59:31;6.70;;;6.17;;
74821;SDS011;63353;48.702;8.884;2023-08-07T08:01:56;7.43;;;7.03;;
74821;SDS011;63353;48.702;8.884;2023-08-07T08:04:22;6.33;;;5.87;;
74821;SDS011;63353;48.702;8.884;2023-08-07T08:06:48;6.40;;;5.90;;
74821;SDS011;63353;48.702;8.884;2023-08-07T08:09:19;5.73;;;5.50;;
74821;SDS011;63353;48.702;8.884;2023-08-07T08:11:47;5.33;;;5.00;;
74821;SDS011;63353;48.702;8.884;2023-08-07T08:14:13;5.50;;;5.23;;
74821;SDS011;63353;48.702;8.884;2023-08-07T08:16:39;5.50;;;5.30;;
74821;SDS011;63353;48.702;8.884;2023-08-07T08:19:04;5.23;;;4.93;;
74821;SDS011;63353;48.702;8.884;2023-08-07T08:21:31;6.50;;;6.03;;
74821;SDS011;63353;48.702;8.884;2023-08-07T08:24:00;5.20;;;4.97;;
74821;SDS011;63353;48.702;8.884;2023-08-07T08:26:35;5.20;;;4.80;;
74821;SDS011;63353;48.702;8.884;2023-08-07T08:29:00;4.90;;;4.70;;
74821;SDS011;63353;48.702;8.884;2023-08-07T08:31:32;4.90;;;4.70;;
74821;SDS011;63353;48.702;8.884;2023-08-07T08:33:57;4.67;;;4.47;;
74821;SDS011;63353;48.702;8.884;2023-08-07T08:36:32;4.80;;;4.60;;
74821;SDS011;63353;48.702;8.884;2023-08-07T08:39:10;4.70;;;4.50;;
74821;SDS011;63353;48.702;8.884;2023-08-07T08:41:35;5.40;;;5.10;;
74821;SDS011;63353;48.702;8.884;2023-08-07T08:44:01;4.50;;;4.30;;
74821;SDS011;63353;48.702;8.884;2023-08-07T08:46:33;5.00;;;4.70;;
74821;SDS011;63353;48.702;8.884;2023-08-07T08:49:07;5.27;;;5.07;;
74821;SDS011;63353;48.702;8.884;2023-08-07T08:51:35;5.20;;;4.90;;
74821;SDS011;63353;48.702;8.884;2023-08-07T08:54:04;4.90;;;4.70;;
74821;SDS011;63353;48.702;8.884;2023-08-07T08:56:34;5.53;;;5.30;;
74821;SDS011;63353;48.702;8.884;2023-08-07T08:59:10;5.87;;;5.63;;
74821;SDS011;63353;48.702;8.884;2023-08-07T09:01:35;6.23;;;6.03;;
74821;SDS011;63353;48.702;8.884;2023-08-07T09:04:02;5.10;;;4.80;;
74821;SDS011;63353;48.702;8.884;2023-08-07T09:06:35;5.07;;;4.77;;
74821;SDS011;63353;48.702;8.884;2023-08-07T09:09:01;4.90;;;4.70;;
74821;SDS011;63353;48.702;8.884;2023-08-07T09:11:27;4.87;;;4.60;;
74821;SDS011;63353;48.702;8.884;2023-08-07T09:14:03;4.83;;;4.57;;
74821;SDS011;63353;48.702;8.884;2023-08-07T09:16:32;4.93;;;4.67;;
74821;SDS011;63353;48.702;8.884;2023-08-07T09:18:58;5.57;;;5.37;;
74821;SDS011;63353;48.702;8.884;2023-08-07T09:21:33;5.50;;;5.30;;
74821;SDS011;63353;48.702;8.884;2023-08-07T09:23:59;5.07;;;4.77;;
74821;SDS011;63353;48.702;8.884;2023-08-07T09:26:46;4.80;;;4.50;;
74821;SDS011;63353;48.702;8.884;2023-08-07T09:29:24;4.60;;;4.40;;
74821;SDS011;63353;48.702;8.884;2023-08-07T09:31:53;6.00;;;5.70;;
74821;SDS011;63353;48.702;8.884;2023-08-07T09:34:20;5.67;;;5.37;;
74821;SDS011;63353;48.702;8.884;2023-08-07T09:36:46;5.77;;;5.57;;
74821;SDS011;63353;48.702;8.884;2023-08-07T09:39:11;4.93;;;4.53;;
74821;SDS011;63353;48.702;8.884;2023-08-07T09:41:40;5.43;;;5.03;;
74821;SDS011;63353;48.702;8.884;2023-08-07T09:44:11;5.37;;;5.07;;
74821;SDS011;63353;48.702;8.884;2023-08-07T09:46:41;4.57;;;4.37;;
74821;SDS011;63353;48.702;8.884;2023-08-07T09:49:07;5.83;;;5.60;;
74821;SDS011;63353;48.702;8.884;2023-08-07T09:51:46;4.77;;;4.57;;
74821;SDS011;63353;48.702;8.884;2023-08-07T09:54:13;5.00;;;4.80;;
74821;SDS011;63353;48.702;8.884;2023-08-07T09:56:43;4.70;;;4.50;;
74821;SDS011;63353;48.702;8.884;2023-08-07T09:59:18;5.10;;;4.70;;
74821;SDS011;63353;48.702;8.884;2023-08-07T10:02:03;4.80;;;4.60;;
74821;SDS011;63353;48.702;8.884;2023-08-07T10:04:32;5.13;;;4.83;;
74821;SDS011;63353;48.702;8.884;2023-08-07T10:07:01;5.37;;;5.10;;
74821;SDS011;63353;48.702;8.884;2023-08-07T10:09:39;5.87;;;5.50;;
74821;SDS011;63353;48.702;8.884;2023-08-07T10:12:11;5.37;;;5.13;;
74821;SDS011;63353;48.702;8.884;2023-08-07T10:14:39;5.53;;;5.23;;
74821;SDS011;63353;48.702;8.884;2023-08-07T10:17:12;5.47;;;5.27;;
74821;SDS011;63353;48.702;8.884;2023-08-07T10:19:38;5.50;;;5.20;;
74821;SDS011;63353;48.702;8.884;2023-08-07T10:22:19;4.90;;;4.60;;
74821;SDS011;63353;48.702;8.884;2023-08-07T10:24:54;6.10;;;5.80;;
74821;SDS011;63353;48.702;8.884;2023-08-07T10:27:22;6.37;;;6.07;;
74821;SDS011;63353;48.702;8.884;2023-08-07T10:29:53;6.07;;;5.67;;
74821;SDS011;63353;48.702;8.884;2023-08-07T10:32:23;7.20;;;6.80;;
74821;SDS011;63353;48.702;8.884;2023-08-07T10:34:50;6.00;;;5.70;;
74821;SDS011;63353;48.702;8.884;2023-08-07T10:38:18;6.10;;;5.73;;
74821;SDS011;63353;48.702;8.884;2023-08-07T10:40:11;5.97;;;5.67;;
74821;SDS011;63353;48.702;8.884;2023-08-07T10:45:40;6.30;;;5.87;;
74821;SDS011;63353;48.702;8.884;2023-08-07T10:48:18;5.90;;;5.63;;
74821;SDS011;63353;48.702;8.884;2023-08-07T10:50:50;5.27;;;4.77;;
74821;SDS011;63353;48.702;8.884;2023-08-07T10:59:12;5.80;;;5.50;;
74821;SDS011;63353;48.702;8.884;2023-08-07T11:04:08;6.30;;;6.00;;
74821;SDS011;63353;48.702;8.884;2023-08-07T11:06:35;7.57;;;7.27;;
74821;SDS011;63353;48.702;8.884;2023-08-07T11:09:09;6.13;;;5.83;;
74821;SDS011;63353;48.702;8.884;2023-08-07T11:14:23;7.10;;;6.60;;
74821;SDS011;63353;48.702;8.884;2023-08-07T11:16:49;6.50;;;6.10;;
74821;SDS011;63353;48.702;8.884;2023-08-07T11:19:16;6.50;;;6.07;;
74821;SDS011;63353;48.702;8.884;2023-08-07T11:21:43;8.07;;;7.60;;
74821;SDS011;63353;48.702;8.884;2023-08-07T11:24:13;7.97;;;7.47;;
74821;SDS011;63353;48.702;8.884;2023-08-07T11:26:42;6.93;;;6.50;;
74821;SDS011;63353;48.702;8.884;2023-08-07T11:29:09;8.40;;;8.00;;
74821;SDS011;63353;48.702;8.884;2023-08-07T11:31:34;6.77;;;6.47;;
74821;SDS011;63353;48.702;8.884;2023-08-07T11:34:03;5.93;;;5.63;;
74821;SDS011;63353;48.702;8.884;2023-08-07T11:36:32;7.13;;;6.73;;
74821;SDS011;63353;48.702;8.884;2023-08-07T11:39:04;6.67;;;6.37;;
74821;SDS011;63353;48.702;8.884;2023-08-07T11:41:37;5.57;;;5.27;;
74821;SDS011;63353;48.702;8.884;2023-08-07T11:44:09;6.17;;;5.87;;
74821;SDS011;63353;48.702;8.884;2023-08-07T11:46:47;6.17;;;5.87;;
74821;SDS011;63353;48.702;8.884;2023-08-07T11:49:13;5.73;;;5.53;;
74821;SDS011;63353;48.702;8.884;2023-08-07T11:51:44;6.03;;;5.73;;
74821;SDS011;63353;48.702;8.884;2023-08-07T11:54:13;5.70;;;5.40;;
74821;SDS011;63353;48.702;8.884;2023-08-07T11:56:40;6.00;;;5.70;;
74821;SDS011;63353;48.702;8.884;2023-08-07T11:59:07;6.70;;;6.20;;
74821;SDS011;63353;48.702;8.884;2023-08-07T12:01:45;6.10;;;5.70;;
74821;SDS011;63353;48.702;8.884;2023-08-07T12:04:13;4.73;;;4.53;;
74821;SDS011;63353;48.702;8.884;2023-08-07T12:06:51;5.80;;;5.47;;
74821;SDS011;63353;48.702;8.884;2023-08-07T12:09:27;7.63;;;7.30;;
74821;SDS011;63353;48.702;8.884;2023-08-07T12:11:56;6.03;;;5.73;;
74821;SDS011;63353;48.702;8.884;2023-08-07T12:14:23;5.60;;;5.30;;
74821;SDS011;63353;48.702;8.884;2023-08-07T12:16:54;6.50;;;6.20;;
74821;SDS011;63353;48.702;8.884;2023-08-07T12:19:22;6.67;;;6.37;;
74821;SDS011;63353;48.702;8.884;2023-08-07T12:22:06;7.10;;;6.77;;
74821;SDS011;63353;48.702;8.884;2023-08-07T12:24:41;8.67;;;8.27;;
74821;SDS011;63353;48.702;8.884;2023-08-07T12:27:07;7.40;;;7.10;;
74821;SDS011;63353;48.702;8.884;2023-08-07T12:29:36;8.27;;;7.77;;
74821;SDS011;63353;48.702;8.884;2023-08-07T12:32:05;8.10;;;7.70;;
74821;SDS011;63353;48.702;8.884;2023-08-07T12:34:34;9.57;;;9.20;;
74821;SDS011;63353;48.702;8.884;2023-08-07T12:37:03;8.43;;;7.83;;
74821;SDS011;63353;48.702;8.884;2023-08-07T12:39:38;8.17;;;7.87;;
74821;SDS011;63353;48.702;8.884;2023-08-07T12:42:04;7.93;;;7.63;;
74821;SDS011;63353;48.702;8.884;2023-08-07T12:44:35;12.83;;;12.23;;
74821;SDS011;63353;48.702;8.884;2023-08-07T12:47:01;12.23;;;11.73;;
74821;SDS011;63353;48.702;8.884;2023-08-07T12:49:27;18.60;;;17.80;;
74821;SDS011;63353;48.702;8.884;2023-08-07T12:51:52;20.90;;;19.80;;
74821;SDS011;63353;48.702;8.884;2023-08-07T12:54:19;8.63;;;8.17;;
74821;SDS011;63353;48.702;8.884;2023-08-07T12:56:47;8.43;;;7.93;;
74821;SDS011;63353;48.702;8.884;2023-08-07T12:59:19;8.90;;;8.43;;
74821;SDS011;63353;48.702;8.884;2023-08-07T13:01:47;8.23;;;7.83;;
74821;SDS011;63353;48.702;8.884;2023-08-07T13:04:13;9.63;;;9.03;;
74821;SDS011;63353;48.702;8.884;2023-08-07T13:06:40;10.77;;;10.27;;
74821;SDS011;63353;48.702;8.884;2023-08-07T13:09:06;10.73;;;10.20;;
74821;SDS011;63353;48.702;8.884;2023-08-07T13:11:35;9.53;;;8.93;;
74821;SDS011;63353;48.702;8.884;2023-08-07T13:14:06;11.10;;;10.60;;
74821;SDS011;63353;48.702;8.884;2023-08-07T13:16:41;10.67;;;10.17;;
74821;SDS011;63353;48.702;8.884;2023-08-07T13:19:14;10.57;;;9.97;;
74821;SDS011;63353;48.702;8.884;2023-08-07T13:21:43;10.27;;;9.80;;
74821;SDS011;63353;48.702;8.884;2023-08-07T13:24:15;10.57;;;10.03;;
74821;SDS011;63353;48.702;8.884;2023-08-07T13:26:43;10.53;;;10.10;;
74821;SDS011;63353;48.702;8.884;2023-08-07T13:29:18;9.90;;;9.50;;
74821;SDS011;63353;48.702;8.884;2023-08-07T13:31:44;9.17;;;8.77;;
74821;SDS011;63353;48.702;8.884;2023-08-07T13:34:11;8.90;;;8.40;;
74821;SDS011;63353;48.702;8.884;2023-08-07T13:36:37;10.17;;;9.77;;
74821;SDS011;63353;48.702;8.884;2023-08-07T13:39:04;10.40;;;9.83;;
74821;SDS011;63353;48.702;8.884;2023-08-07T13:41:30;10.97;;;10.47;;
74821;SDS011;63353;48.702;8.884;2023-08-07T13:43:58;8.83;;;8.43;;
74821;SDS011;63353;48.702;8.884;2023-08-07T13:46:24;9.93;;;9.53;;
74821;SDS011;63353;48.702;8.884;2023-08-07T13:48:59;11.17;;;10.63;;
74821;SDS011;63353;48.702;8.884;2023-08-07T13:51:28;10.27;;;9.70;;
74821;SDS011;63353;48.702;8.884;2023-08-07T13:53:54;10.40;;;9.93;;
74821;SDS011;63353;48.702;8.884;2023-08-07T13:56:19;9.97;;;9.57;;
74821;SDS011;63353;48.702;8.884;2023-08-07T13:59:04;10.47;;;9.97;;
74821;SDS011;63353;48.702;8.884;2023-08-07T14:01:32;10.60;;;10.10;;
74821;SDS011;63353;48.702;8.884;2023-08-07T14:03:59;10.20;;;9.80;;
74821;SDS011;63353;48.702;8.884;2023-08-07T14:06:26;9.27;;;8.87;;
74821;SDS011;63353;48.702;8.884;2023-08-07T14:09:01;10.70;;;10.20;;
74821;SDS011;63353;48.702;8.884;2023-08-07T14:11:26;8.83;;;8.43;;
74821;SDS011;63353;48.702;8.884;2023-08-07T14:13:58;10.53;;;9.97;;
74821;SDS011;63353;48.702;8.884;2023-08-07T14:16:26;9.73;;;9.23;;
74821;SDS011;63353;48.702;8.884;2023-08-07T14:18:55;10.63;;;10.03;;
74821;SDS011;63353;48.702;8.884;2023-08-07T14:21:23;9.73;;;9.33;;
74821;SDS011;63353;48.702;8.884;2023-08-07T14:23:52;9.60;;;9.20;;
74821;SDS011;63353;48.702;8.884;2023-08-07T14:26:23;11.53;;;10.97;;
74821;SDS011;63353;48.702;8.884;2023-08-07T14:28:52;10.97;;;10.57;;
74821;SDS011;63353;48.702;8.884;2023-08-07T14:31:17;9.60;;;9.17;;
74821;SDS011;63353;48.702;8.884;2023-08-07T14:33:49;10.87;;;10.33;;
74821;SDS011;63353;48.702;8.884;2023-08-07T14:36:39;10.23;;;9.73;;
74821;SDS011;63353;48.702;8.884;2023-08-07T14:39:15;9.70;;;9.27;;
74821;SDS011;63353;48.702;8.884;2023-08-07T14:41:43;10.53;;;10.03;;
74821;SDS011;63353;48.702;8.884;2023-08-07T14:44:24;9.13;;;8.67;;
74821;SDS011;63353;48.702;8.884;2023-08-07T14:46:59;8.63;;;8.07;;
74821;SDS011;63353;48.702;8.884;2023-08-07T14:49:43;9.43;;;8.93;;
74821;SDS011;63353;48.702;8.884;2023-08-07T14:52:14;10.30;;;9.80;;
74821;SDS011;63353;48.702;8.884;2023-08-07T14:54:43;9.27;;;8.67;;
74821;SDS011;63353;48.702;8.884;2023-08-07T14:57:09;10.03;;;9.27;;
74821;SDS011;63353;48.702;8.884;2023-08-07T14:59:38;9.77;;;9.27;;
74821;SDS011;63353;48.702;8.884;2023-08-07T15:02:03;10.03;;;9.50;;
74821;SDS011;63353;48.702;8.884;2023-08-07T15:04:33;8.63;;;8.23;;
74821;SDS011;63353;48.702;8.884;2023-08-07T15:07:09;10.93;;;10.43;;
74821;SDS011;63353;48.702;8.884;2023-08-07T15:09:34;10.87;;;10.47;;
74821;SDS011;63353;48.702;8.884;2023-08-07T15:12:00;11.37;;;10.63;;
74821;SDS011;63353;48.702;8.884;2023-08-07T15:14:32;10.10;;;9.70;;
74821;SDS011;63353;48.702;8.884;2023-08-07T15:17:01;11.03;;;10.37;;